Time;durP1;ratioP1;P1;durP2;ratioP2;P2;SDS_P1;SDS_P2;PMS_P1;PMS_P2;Temp;Humidity;BMP_temperature;BMP_pressure;BME280_temperature;BME280_humidity;BME280_pressure;Samples;Min_cycle;Max_cycle;Signal;HPM_P1;HPM_P2
2022/07/10 00:00:37;;;;;;;4.70;0.73;;;14.40;99.90;;;;;;5126985;27;20402;-86
2022/07/10 00:03:04;;;;;;;8.43;1.48;;;14.40;99.90;;;;;;5090938;27;20493;-86
2022/07/10 00:05:30;;;;;;;4.55;0.75;;;15.40;99.90;;;;;;5091692;27;20054;-86
2022/07/10 00:07:56;;;;;;;8.45;0.85;;;14.30;99.90;;;;;;5117712;27;20027;-87
2022/07/10 00:10:23;;;;;;;7.85;1.58;;;15.20;99.90;;;;;;5108715;27;20064;-85
2022/07/10 00:12:50;;;;;;;3.45;0.85;;;14.20;99.90;;;;;;5078893;27;20039;-86
2022/07/10 00:15:17;;;;;;;2.63;0.70;;;14.20;99.90;;;;;;5092294;27;20123;-86
2022/07/10 00:17:44;;;;;;;6.00;0.63;;;14.40;99.90;;;;;;5107969;27;20047;-87
2022/07/10 00:20:11;;;;;;;7.60;0.85;;;14.10;99.90;;;;;;5090187;27;20039;-87
2022/07/10 00:22:40;;;;;;;3.58;0.50;;;14.00;99.90;;;;;;5091327;27;20047;-86
2022/07/10 00:25:07;;;;;;;5.28;0.95;;;14.60;99.90;;;;;;5090788;27;20039;-86
2022/07/10 00:27:33;;;;;;;6.10;0.80;;;14.00;99.90;;;;;;5067463;28;20048;-86
2022/07/10 00:29:59;;;;;;;8.13;0.90;;;14.50;99.90;;;;;;5066877;28;20040;-86
2022/07/10 00:32:24;;;;;;;6.60;0.77;;;14.00;99.90;;;;;;5083082;28;20048;-86
2022/07/10 00:34:51;;;;;;;2.72;0.47;;;14.00;99.90;;;;;;5083870;28;20110;-87
2022/07/10 00:37:17;;;;;;;6.72;0.70;;;14.40;99.90;;;;;;5066332;28;20044;-86
2022/07/10 00:39:43;;;;;;;5.35;0.90;;;15.10;99.90;;;;;;5067703;28;20060;-86
2022/07/10 00:42:16;;;;;;;4.68;0.68;;;14.40;99.90;;;;;;5067232;28;20568;-87
2022/07/10 00:44:42;;;;;;;5.93;1.02;;;14.20;99.90;;;;;;5067536;28;20542;-87
2022/07/10 00:47:09;;;;;;;9.55;1.20;;;14.20;99.90;;;;;;5033824;28;20032;-87
2022/07/10 00:49:36;;;;;;;9.35;1.13;;;14.40;99.90;;;;;;5083581;28;20044;-87
2022/07/10 00:52:06;;;;;;;5.28;0.73;;;14.20;99.90;;;;;;5066944;28;20335;-87
2022/07/10 00:54:33;;;;;;;1.92;0.60;;;14.10;99.90;;;;;;5082941;28;20051;-87
2022/07/10 00:57:00;;;;;;;6.63;0.73;;;14.80;99.90;;;;;;5083951;28;20044;-87
2022/07/10 00:59:27;;;;;;;9.45;1.20;;;14.10;99.90;;;;;;5066091;28;20044;-87
2022/07/10 01:01:54;;;;;;;7.05;0.80;;;14.10;99.90;;;;;;5066992;28;20048;-86
2022/07/10 01:04:20;;;;;;;2.95;0.60;;;14.70;99.90;;;;;;5049884;28;20580;-86
2022/07/10 01:06:46;;;;;;;6.68;0.75;;;14.10;99.90;;;;;;5050284;28;20372;-87
2022/07/10 01:09:12;;;;;;;7.00;0.75;;;14.10;99.90;;;;;;5050211;28;20105;-87
2022/07/10 01:11:38;;;;;;;3.70;0.70;;;14.10;99.90;;;;;;5082673;28;20040;-87
2022/07/10 01:14:04;;;;;;;8.73;1.20;;;15.10;99.90;;;;;;5067064;28;20040;-87
2022/07/10 01:16:33;;;;;;;5.07;0.68;;;14.10;99.90;;;;;;5049462;28;20039;-86
2022/07/10 01:18:59;;;;;;;6.38;1.08;;;14.20;99.90;;;;;;5050370;28;20083;-86
2022/07/10 01:21:31;;;;;;;5.32;0.95;;;14.90;99.90;;;;;;5066805;28;20072;-86
2022/07/10 01:23:57;;;;;;;9.27;1.25;;;14.10;99.90;;;;;;5068035;28;20090;-86
2022/07/10 01:26:23;;;;;;;9.93;1.42;;;14.10;99.90;;;;;;5091025;28;20150;-87
2022/07/10 01:28:53;;;;;;;8.63;0.80;;;14.50;99.90;;;;;;5073444;28;20047;-87
2022/07/10 01:31:26;;;;;;;9.93;1.08;;;14.40;99.90;;;;;;5073788;28;20573;-86
2022/07/10 01:33:53;;;;;;;5.20;1.23;;;15.20;99.90;;;;;;5089640;28;20082;-87
2022/07/10 01:36:20;;;;;;;5.30;0.70;;;14.40;99.90;;;;;;5073296;28;20040;-87
2022/07/10 01:38:46;;;;;;;2.58;0.60;;;14.10;99.90;;;;;;5073016;28;20051;-86
2022/07/10 01:41:12;;;;;;;8.70;1.83;;;14.50;99.90;;;;;;5089607;28;20047;-86
2022/07/10 01:43:42;;;;;;;7.90;0.85;;;14.00;99.90;;;;;;5092652;27;20087;-86
2022/07/10 01:46:10;;;;;;;4.50;0.50;;;14.00;99.90;;;;;;5092773;27;20051;-86
2022/07/10 01:48:37;;;;;;;6.38;0.80;;;14.00;99.90;;;;;;5094159;27;20486;-87
2022/07/10 01:51:04;;;;;;;4.57;0.57;;;14.60;99.90;;;;;;5076433;27;20050;-87
2022/07/10 01:53:29;;;;;;;7.18;0.50;;;14.00;99.90;;;;;;5093713;27;20143;-87
2022/07/10 01:55:55;;;;;;;4.80;0.70;;;14.10;99.90;;;;;;5129134;27;20035;-86
2022/07/10 01:58:21;;;;;;;5.05;0.65;;;14.00;99.90;;;;;;5093458;27;20057;-87
2022/07/10 02:00:47;;;;;;;7.57;1.27;;;15.10;99.90;;;;;;5060091;27;20043;-87
2022/07/10 02:05:57;;;;;;;5.75;0.75;;;14.00;99.90;;;;;;5096785;27;20125;-86
2022/07/10 02:08:23;;;;;;;8.18;0.80;;;13.90;99.90;;;;;;5093454;27;20468;-87
2022/07/10 02:10:49;;;;;;;3.80;0.75;;;13.90;99.90;;;;;;5076408;27;20553;-87
2022/07/10 02:13:17;;;;;;;7.78;0.80;;;13.90;99.90;;;;;;5093512;27;20051;-87
2022/07/10 02:15:43;;;;;;;4.82;0.65;;;13.90;99.90;;;;;;5093067;27;20043;-87
2022/07/10 02:18:09;;;;;;;3.17;0.75;;;13.90;99.90;;;;;;5110750;27;20459;-87
2022/07/10 02:20:36;;;;;;;7.30;1.08;;;14.50;99.90;;;;;;5109355;27;20092;-87
2022/07/10 02:23:02;;;;;;;5.60;0.90;;;13.90;99.90;;;;;;5093510;27;20133;-87
2022/07/10 02:25:28;;;;;;;3.78;0.85;;;13.80;99.90;;;;;;5109832;27;20126;-86
2022/07/10 02:27:53;;;;;;;6.15;0.55;;;13.80;99.90;;;;;;5076408;27;20142;-87
2022/07/10 02:30:19;;;;;;;7.80;0.90;;;13.80;99.90;;;;;;5104932;27;20043;-87
2022/07/10 02:32:45;;;;;;;4.78;0.55;;;13.80;99.90;;;;;;5110680;27;20043;-86
2022/07/10 02:35:11;;;;;;;3.67;0.80;;;13.80;99.90;;;;;;5110726;27;20518;-87
2022/07/10 02:37:36;;;;;;;5.32;1.83;;;14.00;99.90;;;;;;5110666;27;20433;-86
2022/07/10 02:40:02;;;;;;;4.90;0.60;;;14.60;99.90;;;;;;5093634;27;20039;-87
2022/07/10 02:42:28;;;;;;;11.27;1.17;;;13.80;99.90;;;;;;5059519;27;20042;-87
2022/07/10 02:44:53;;;;;;;2.60;0.88;;;14.20;99.90;;;;;;5075925;27;20102;-87
2022/07/10 02:47:19;;;;;;;6.65;0.73;;;14.40;99.90;;;;;;5075485;27;20399;-87
2022/07/10 02:49:45;;;;;;;5.88;0.90;;;13.80;99.90;;;;;;5075765;27;20043;-87
2022/07/10 02:52:10;;;;;;;6.88;1.00;;;13.80;99.90;;;;;;5109653;27;20035;-87
2022/07/10 02:54:38;;;;;;;7.30;1.00;;;13.90;99.90;;;;;;5074330;27;20217;-87
2022/07/10 02:57:04;;;;;;;5.22;0.80;;;13.90;99.90;;;;;;5092762;27;20039;-87
2022/07/10 02:59:30;;;;;;;6.30;0.68;;;13.90;99.90;;;;;;5109247;27;20545;-87
2022/07/10 03:01:56;;;;;;;7.78;1.00;;;13.80;99.90;;;;;;5092445;27;20134;-87
2022/07/10 03:04:21;;;;;;;7.85;1.23;;;13.80;99.90;;;;;;5092485;27;20045;-87
2022/07/10 03:06:47;;;;;;;7.13;1.20;;;14.90;99.90;;;;;;5091845;27;20498;-86
2022/07/10 03:09:12;;;;;;;8.93;1.13;;;13.80;99.90;;;;;;5075139;27;20455;-87
2022/07/10 03:11:38;;;;;;;7.18;0.70;;;13.80;99.90;;;;;;5108492;27;20043;-87
2022/07/10 03:14:05;;;;;;;6.28;0.55;;;13.80;99.90;;;;;;5092638;27;20081;-87
2022/07/10 03:16:31;;;;;;;5.07;0.75;;;13.80;99.90;;;;;;5074895;27;20042;-86
2022/07/10 03:18:57;;;;;;;7.78;1.00;;;13.70;99.90;;;;;;5075533;27;20051;-87
2022/07/10 03:21:23;;;;;;;4.30;0.85;;;14.90;99.90;;;;;;5093429;27;20041;-87
2022/07/10 03:23:50;;;;;;;4.10;0.88;;;13.80;99.90;;;;;;5062422;27;20067;-87
2022/07/10 03:26:15;;;;;;;7.10;1.50;;;13.80;99.90;;;;;;5093001;27;20097;-87
2022/07/10 03:28:41;;;;;;;4.22;0.73;;;14.50;99.90;;;;;;5108337;27;20574;-87
2022/07/10 03:31:07;;;;;;;9.45;1.02;;;13.90;99.90;;;;;;5109371;27;20066;-87
2022/07/10 03:33:33;;;;;;;7.68;0.85;;;14.10;99.90;;;;;;5091585;27;20374;-87
2022/07/10 03:36:01;;;;;;;8.73;1.30;;;14.00;99.90;;;;;;5091853;27;20046;-87
2022/07/10 03:38:27;;;;;;;6.75;0.82;;;14.00;99.90;;;;;;5127210;27;20054;-86
2022/07/10 03:40:53;;;;;;;8.15;0.77;;;14.10;99.90;;;;;;5108587;27;20046;-87
2022/07/10 03:43:18;;;;;;;4.25;0.52;;;14.80;99.90;;;;;;5091770;27;20078;-87
2022/07/10 03:45:44;;;;;;;7.00;1.08;;;14.20;99.90;;;;;;5074049;27;20047;-86
2022/07/10 03:48:10;;;;;;;5.72;0.80;;;15.00;99.90;;;;;;5108737;27;20043;-86
2022/07/10 03:50:35;;;;;;;4.43;0.80;;;14.40;99.90;;;;;;5107976;27;20031;-87
2022/07/10 03:53:01;;;;;;;11.02;1.05;;;15.10;99.90;;;;;;5092281;27;20054;-87
2022/07/10 03:55:27;;;;;;;10.20;0.73;;;14.40;99.90;;;;;;5091533;27;20070;-87
2022/07/10 03:58:02;;;;;;;6.55;0.98;;;14.50;99.90;;;;;;5091535;27;20043;-87
2022/07/10 04:00:32;;;;;;;9.38;1.25;;;14.50;99.90;;;;;;5091618;27;20113;-87
2022/07/10 04:02:59;;;;;;;8.55;1.02;;;15.00;99.90;;;;;;5090345;27;20043;-86
2022/07/10 04:05:26;;;;;;;6.10;1.30;;;14.60;99.90;;;;;;5108332;27;20042;-87
2022/07/10 04:07:52;;;;;;;8.40;0.93;;;14.70;99.90;;;;;;5074027;27;20566;-87
2022/07/10 04:10:18;;;;;;;9.90;1.48;;;14.70;99.90;;;;;;5108353;27;20054;-87
2022/07/10 04:12:45;;;;;;;5.18;1.08;;;14.70;99.90;;;;;;5090997;27;20155;-87
2022/07/10 04:15:11;;;;;;;11.90;1.33;;;14.70;99.90;;;;;;5108026;27;20141;-86
2022/07/10 04:17:36;;;;;;;13.10;0.98;;;15.50;99.90;;;;;;5108243;27;20035;-87
2022/07/10 04:20:03;;;;;;;5.13;1.17;;;15.10;99.90;;;;;;5090534;27;20047;-87
2022/07/10 04:22:28;;;;;;;7.93;1.13;;;14.80;99.90;;;;;;5091472;27;20036;-86
2022/07/10 04:24:55;;;;;;;8.18;1.38;;;14.80;99.90;;;;;;5091165;27;20509;-87
2022/07/10 04:27:20;;;;;;;5.75;0.85;;;14.80;99.90;;;;;;5090973;27;20138;-87
2022/07/10 04:29:46;;;;;;;8.45;1.60;;;14.80;99.90;;;;;;5090599;27;20176;-87
2022/07/10 04:32:12;;;;;;;6.60;1.08;;;14.90;99.90;;;;;;5073805;28;20123;-87
2022/07/10 04:34:38;;;;;;;7.28;1.35;;;14.80;99.90;;;;;;5057129;28;20169;-87
2022/07/10 04:37:05;;;;;;;6.53;1.13;;;14.90;99.90;;;;;;5089955;27;20047;-87
2022/07/10 04:39:30;;;;;;;5.15;0.93;;;14.90;99.90;;;;;;5074567;27;20065;-88
2022/07/10 04:41:56;;;;;;;9.00;0.98;;;15.50;99.90;;;;;;5090067;28;20510;-87
2022/07/10 04:44:22;;;;;;;4.18;0.93;;;15.00;99.90;;;;;;5091013;28;20043;-87
2022/07/10 04:46:48;;;;;;;7.13;1.20;;;15.00;99.90;;;;;;5090500;28;20047;-87
2022/07/10 04:49:13;;;;;;;7.95;1.35;;;15.70;99.90;;;;;;5108870;28;20035;-87
2022/07/10 04:51:39;;;;;;;7.15;0.80;;;15.00;99.90;;;;;;5127192;28;20031;-86
2022/07/10 04:54:05;;;;;;;3.60;0.77;;;16.10;99.90;;;;;;5088217;28;20081;-88
2022/07/10 04:56:30;;;;;;;9.68;0.77;;;15.10;99.90;;;;;;5092355;28;20039;-87
2022/07/10 04:58:56;;;;;;;7.88;1.13;;;15.10;99.90;;;;;;5073524;28;20054;-87
2022/07/10 05:01:22;;;;;;;10.90;1.27;;;15.10;99.90;;;;;;5108222;28;20097;-87
2022/07/10 05:03:48;;;;;;;6.10;1.13;;;15.20;99.90;;;;;;5090457;28;20525;-86
2022/07/10 05:06:13;;;;;;;6.68;1.15;;;16.00;99.90;;;;;;5090455;28;20112;-86
2022/07/10 05:08:39;;;;;;;9.02;1.25;;;15.70;99.90;;;;;;5090701;28;20035;-86
2022/07/10 05:11:05;;;;;;;6.78;1.10;;;15.40;99.90;;;;;;5072994;28;20137;-88
2022/07/10 05:13:31;;;;;;;11.90;1.50;;;15.40;99.90;;;;;;5090359;28;20047;-88
2022/07/10 05:15:56;;;;;;;6.15;1.40;;;15.40;99.90;;;;;;5056439;28;20051;-87
2022/07/10 05:18:22;;;;;;;5.88;0.68;;;15.40;99.90;;;;;;5076333;27;20043;-87
2022/07/10 05:20:49;;;;;;;5.72;0.82;;;15.90;99.90;;;;;;5078330;27;20039;-86
2022/07/10 05:23:15;;;;;;;4.22;0.80;;;15.70;99.90;;;;;;5097892;27;20485;-88
2022/07/10 05:25:42;;;;;;;4.30;0.90;;;15.50;99.90;;;;;;5097201;27;20039;-87
2022/07/10 05:28:07;;;;;;;6.93;0.95;;;15.50;99.90;;;;;;5094925;27;20482;-87
2022/07/10 05:30:33;;;;;;;6.90;2.10;;;16.00;99.90;;;;;;5095012;27;20083;-88
2022/07/10 05:32:59;;;;;;;7.45;1.00;;;15.60;99.90;;;;;;5080954;27;20176;-87
2022/07/10 05:35:26;;;;;;;6.20;0.82;;;15.70;99.90;;;;;;5097325;27;20046;-87
2022/07/10 05:37:52;;;;;;;3.90;1.17;;;15.70;99.90;;;;;;5094669;27;20047;-87
2022/07/10 05:40:19;;;;;;;8.02;1.52;;;15.70;99.90;;;;;;5115732;27;20100;-88
2022/07/10 05:42:44;;;;;;;2.67;0.88;;;15.80;99.90;;;;;;5096466;27;20130;-87
2022/07/10 05:45:11;;;;;;;6.28;0.73;;;15.80;99.90;;;;;;5077575;27;20546;-85
2022/07/10 05:47:37;;;;;;;4.43;0.80;;;15.80;99.90;;;;;;5111067;27;20501;-85
2022/07/10 05:50:04;;;;;;;4.00;0.80;;;15.90;99.90;;;;;;5094307;27;20039;-84
2022/07/10 05:52:30;;;;;;;8.77;0.82;;;15.90;99.90;;;;;;5101502;27;20047;-84
2022/07/10 05:54:57;;;;;;;7.85;1.13;;;15.90;99.90;;;;;;5117231;27;20371;-84
2022/07/10 05:57:23;;;;;;;7.95;0.80;;;15.90;99.90;;;;;;5101284;27;20095;-83
2022/07/10 05:59:50;;;;;;;5.03;0.63;;;15.90;99.90;;;;;;5100213;27;20043;-84
2022/07/10 06:02:16;;;;;;;5.03;0.63;;;15.90;99.90;;;;;;5118044;27;20047;-84
2022/07/10 06:04:42;;;;;;;5.75;0.75;;;15.80;99.90;;;;;;5099288;27;20104;-86
2022/07/10 06:07:08;;;;;;;9.55;1.13;;;16.20;99.90;;;;;;5081684;27;20047;-85
2022/07/10 06:09:34;;;;;;;7.50;0.60;;;15.80;99.90;;;;;;5098505;27;20054;-85
2022/07/10 06:12:00;;;;;;;6.65;1.02;;;15.80;99.90;;;;;;5080088;27;20088;-84
2022/07/10 06:14:26;;;;;;;6.72;1.00;;;15.80;99.90;;;;;;5064551;27;20570;-87
2022/07/10 06:16:52;;;;;;;2.70;0.60;;;15.80;99.90;;;;;;5099062;27;20078;-87
2022/07/10 06:19:18;;;;;;;6.63;0.77;;;15.80;99.90;;;;;;5078585;27;20134;-85
2022/07/10 06:21:44;;;;;;;2.35;0.47;;;15.90;99.90;;;;;;5130524;27;20043;-86
2022/07/10 06:24:10;;;;;;;8.85;0.90;;;15.90;99.90;;;;;;5077015;27;20409;-85
2022/07/10 06:26:41;;;;;;;6.40;1.25;;;15.90;99.90;;;;;;5095345;27;20059;-86
2022/07/10 06:29:07;;;;;;;3.30;0.45;;;15.90;99.90;;;;;;5092189;27;20078;-86
2022/07/10 06:31:33;;;;;;;11.35;1.63;;;15.90;99.90;;;;;;5077886;27;20150;-85
2022/07/10 06:33:58;;;;;;;6.28;0.93;;;16.00;99.90;;;;;;5110832;27;20043;-84
2022/07/10 06:36:24;;;;;;;3.88;0.60;;;15.90;99.90;;;;;;5128756;27;20047;-85
2022/07/10 06:38:49;;;;;;;5.85;0.70;;;15.90;99.90;;;;;;5093503;27;20088;-84
2022/07/10 06:41:15;;;;;;;8.00;0.95;;;15.90;99.90;;;;;;5092904;27;20141;-86
2022/07/10 06:43:41;;;;;;;5.65;0.75;;;16.50;99.90;;;;;;5076695;27;20054;-84
2022/07/10 06:46:06;;;;;;;7.43;0.60;;;15.80;99.90;;;;;;5091947;27;20043;-82
2022/07/10 06:48:32;;;;;;;5.28;1.10;;;16.70;99.90;;;;;;5093077;27;20047;-83
2022/07/10 06:50:58;;;;;;;4.97;0.82;;;15.90;99.90;;;;;;5076482;27;20454;-83
2022/07/10 06:53:26;;;;;;;6.85;0.80;;;15.80;99.90;;;;;;5109472;27;20043;-84
2022/07/10 06:55:53;;;;;;;7.47;1.08;;;15.90;99.90;;;;;;5109770;27;20394;-85
2022/07/10 06:58:19;;;;;;;7.50;0.77;;;16.00;99.90;;;;;;5108633;27;20042;-83
2022/07/10 07:00:44;;;;;;;10.05;1.05;;;16.00;99.90;;;;;;5128246;27;20043;-83
2022/07/10 07:03:10;;;;;;;2.47;0.52;;;16.10;99.90;;;;;;5127109;27;20042;-83
2022/07/10 07:05:36;;;;;;;4.80;0.68;;;16.70;99.90;;;;;;5092803;27;20054;-83
2022/07/10 07:08:02;;;;;;;3.20;0.50;;;16.10;99.90;;;;;;5092181;27;20061;-82
2022/07/10 07:10:27;;;;;;;2.20;0.35;;;16.10;99.90;;;;;;5109676;27;20049;-83
2022/07/10 07:12:53;;;;;;;5.10;0.90;;;16.20;99.90;;;;;;5109889;27;20081;-82
2022/07/10 07:15:22;;;;;;;3.55;0.73;;;16.90;99.90;;;;;;5093096;27;20043;-82
2022/07/10 07:17:57;;;;;;;4.22;0.68;;;16.40;99.90;;;;;;5092890;27;20047;-82
2022/07/10 07:23:10;;;;;;;1.85;0.30;;;16.60;99.90;;;;;;5109852;27;20039;-83
2022/07/10 07:25:39;;;;;;;2.30;0.50;;;16.60;99.90;;;;;;5108933;27;20533;-84
2022/07/10 07:28:06;;;;;;;4.40;0.80;;;16.60;99.90;;;;;;5092872;27;20490;-84
2022/07/10 07:30:31;;;;;;;6.25;0.70;;;16.60;99.90;;;;;;5075551;27;20134;-84
2022/07/10 07:32:57;;;;;;;3.10;0.35;;;16.50;99.90;;;;;;5108005;27;20693;-83
2022/07/10 07:35:23;;;;;;;5.68;0.73;;;16.40;99.90;;;;;;5109123;27;20051;-82
2022/07/10 07:37:50;;;;;;;4.05;0.50;;;16.20;99.90;;;;;;5091567;27;20035;-82
2022/07/10 07:40:22;;;;;;;4.15;0.52;;;16.10;99.90;;;;;;5091713;27;20051;-82
2022/07/10 07:42:49;;;;;;;2.25;0.32;;;16.10;99.90;;;;;;5109021;27;20401;-82
2022/07/10 07:45:15;;;;;;;1.45;0.30;;;16.10;99.90;;;;;;5108343;27;20096;-82
2022/07/10 07:47:59;;;;;;;5.10;0.50;;;16.20;99.90;;;;;;5108539;27;20047;-83
2022/07/10 07:50:28;;;;;;;3.10;0.57;;;16.30;99.90;;;;;;5091187;27;20043;-83
2022/07/10 07:52:55;;;;;;;1.80;0.40;;;16.40;99.90;;;;;;5092016;27;20367;-83
2022/07/10 07:55:22;;;;;;;2.78;0.50;;;16.50;99.90;;;;;;5091420;27;20345;-84
2022/07/10 07:57:51;;;;;;;2.15;0.47;;;16.50;99.90;;;;;;5107898;27;20076;-83
2022/07/10 08:00:17;;;;;;;5.43;0.65;;;16.60;99.90;;;;;;5108555;27;20402;-85
2022/07/10 08:02:43;;;;;;;3.33;0.68;;;16.40;99.90;;;;;;5107676;27;20050;-81
2022/07/10 08:05:10;;;;;;;3.50;0.43;;;17.40;99.90;;;;;;5091580;27;20465;-83
2022/07/10 08:07:44;;;;;;;4.93;0.68;;;16.30;99.90;;;;;;5090347;27;20134;-83
2022/07/10 08:10:13;;;;;;;2.67;0.50;;;16.20;99.90;;;;;;5108356;27;20100;-82
2022/07/10 08:12:40;;;;;;;3.38;1.02;;;16.20;99.90;;;;;;5108232;27;20118;-83
2022/07/10 08:15:11;;;;;;;4.80;0.50;;;16.20;99.90;;;;;;5107546;27;20043;-83
2022/07/10 08:17:37;;;;;;;6.72;0.95;;;16.20;99.90;;;;;;5126657;27;20127;-82
2022/07/10 08:20:05;;;;;;;3.53;0.47;;;16.20;99.90;;;;;;5126139;27;20372;-82
2022/07/10 08:22:31;;;;;;;2.63;0.47;;;16.30;99.90;;;;;;5126461;27;20111;-82
2022/07/10 08:24:57;;;;;;;3.25;0.50;;;16.50;99.90;;;;;;5108020;27;20062;-82
2022/07/10 08:27:23;;;;;;;4.13;0.50;;;16.60;99.90;;;;;;5126075;27;20051;-82
2022/07/10 08:29:49;;;;;;;5.80;0.55;;;16.60;99.90;;;;;;5107786;27;20045;-82
2022/07/10 08:32:15;;;;;;;7.00;0.82;;;16.60;99.90;;;;;;5107241;27;20047;-81
2022/07/10 08:34:40;;;;;;;2.55;0.50;;;16.70;99.90;;;;;;5107681;27;20043;-81
2022/07/10 08:37:06;;;;;;;2.22;0.38;;;16.80;99.90;;;;;;5106698;28;20043;-82
2022/07/10 08:39:33;;;;;;;3.75;0.30;;;16.70;99.90;;;;;;5126556;27;20047;-84
2022/07/10 08:42:00;;;;;;;1.63;0.13;;;16.70;99.90;;;;;;5107598;28;20035;-84
2022/07/10 08:44:26;;;;;;;2.65;0.47;;;17.10;99.90;;;;;;5125969;27;20570;-83
2022/07/10 08:46:52;;;;;;;3.22;0.40;;;16.90;99.90;;;;;;5090755;28;20080;-83
2022/07/10 08:49:19;;;;;;;4.15;0.68;;;17.50;99.90;;;;;;5125698;27;20134;-83
2022/07/10 08:52:05;;;;;;;2.22;0.32;;;17.30;99.90;;;;;;5125674;27;20043;-83
2022/07/10 08:54:32;;;;;;;3.28;0.75;;;17.50;99.90;;;;;;5089975;28;20138;-83
2022/07/10 08:57:00;;;;;;;2.88;0.20;;;17.70;99.90;;;;;;5107454;28;20118;-84
2022/07/10 08:59:27;;;;;;;1.52;0.47;;;17.90;99.90;;;;;;5107358;28;20039;-83
2022/07/10 09:01:53;;;;;;;2.55;0.47;;;18.10;99.90;;;;;;5090255;28;20084;-83
2022/07/10 09:04:21;;;;;;;1.20;0.30;;;18.30;99.90;;;;;;5107316;28;20078;-82
2022/07/10 09:06:47;;;;;;;1.55;0.45;;;18.40;99.90;;;;;;5107332;28;20066;-83
2022/07/10 09:09:13;;;;;;;1.80;0.20;;;18.40;99.90;;;;;;5125907;28;20506;-84
2022/07/10 09:11:42;;;;;;;1.95;0.28;;;18.50;99.90;;;;;;5090093;28;20046;-82
2022/07/10 09:14:13;;;;;;;2.60;0.40;;;18.50;99.90;;;;;;5126251;28;20051;-83
2022/07/10 09:16:47;;;;;;;1.48;0.30;;;18.50;99.90;;;;;;5125848;27;20043;-82
2022/07/10 09:19:21;;;;;;;1.00;0.20;;;18.60;99.90;;;;;;5109706;28;20194;-84
2022/07/10 09:21:51;;;;;;;2.33;0.35;;;18.60;99.90;;;;;;5110683;28;20124;-83
2022/07/10 09:24:20;;;;;;;4.82;0.30;;;18.70;99.90;;;;;;5106466;28;20287;-83
2022/07/10 09:27:07;;;;;;;2.97;0.38;;;18.70;99.90;;;;;;5107003;28;20066;-84
2022/07/10 09:29:45;;;;;;;3.00;0.25;;;18.70;99.90;;;;;;5106831;28;20047;-81
2022/07/10 09:32:11;;;;;;;1.25;0.30;;;18.80;99.90;;;;;;5075101;28;20049;-83
2022/07/10 09:34:44;;;;;;;4.03;0.40;;;18.60;99.90;;;;;;5091133;28;20054;-82
2022/07/10 09:37:28;;;;;;;1.27;0.30;;;18.60;99.90;;;;;;5111304;28;20043;-82
2022/07/10 09:40:03;;;;;;;1.00;0.30;;;18.50;99.90;;;;;;5110586;28;20039;-83
2022/07/10 09:42:41;;;;;;;1.63;0.32;;;18.30;99.90;;;;;;5090158;28;20043;-84
2022/07/10 09:45:12;;;;;;;2.70;0.40;;;18.20;99.90;;;;;;5089482;28;20048;-85
2022/07/10 09:47:43;;;;;;;1.35;0.45;;;18.20;99.90;;;;;;5107087;28;20494;-82
2022/07/10 09:50:34;;;;;;;2.40;0.38;;;18.10;99.90;;;;;;5124780;28;20066;-82
2022/07/10 09:53:02;;;;;;;1.13;0.30;;;18.00;99.90;;;;;;5106990;28;20079;-84
2022/07/10 09:55:37;;;;;;;3.47;0.50;;;17.80;99.90;;;;;;5107651;28;20052;-83
2022/07/10 09:58:03;;;;;;;1.45;0.47;;;17.60;99.90;;;;;;5106147;28;20063;-83
2022/07/10 10:00:32;;;;;;;2.35;0.30;;;17.40;99.90;;;;;;5089744;28;20043;-83
2022/07/10 10:03:00;;;;;;;4.25;0.50;;;17.30;99.90;;;;;;5088966;27;20433;-83
2022/07/10 10:05:37;;;;;;;3.80;0.40;;;17.20;99.90;;;;;;5093409;27;20043;-83
2022/07/10 10:08:10;;;;;;;3.60;0.57;;;17.20;99.90;;;;;;5093331;27;20126;-83
2022/07/10 10:10:37;;;;;;;3.47;0.40;;;17.30;99.90;;;;;;5110178;27;20047;-83
2022/07/10 10:13:07;;;;;;;2.67;0.43;;;17.30;99.90;;;;;;5093862;27;20050;-83
2022/07/10 10:15:33;;;;;;;4.18;0.70;;;17.20;99.90;;;;;;5128073;27;20047;-82
2022/07/10 10:18:00;;;;;;;1.92;0.55;;;17.10;99.90;;;;;;5128893;27;20035;-83
2022/07/10 10:20:41;;;;;;;1.67;0.57;;;17.10;99.90;;;;;;5092753;27;20087;-83
2022/07/10 10:23:20;;;;;;;1.48;0.60;;;17.10;99.90;;;;;;5095664;27;20409;-83
2022/07/10 10:25:51;;;;;;;7.30;0.80;;;17.40;99.90;;;;;;5092818;27;20043;-83
2022/07/10 10:28:23;;;;;;;2.15;0.60;;;17.40;99.90;;;;;;5088696;28;20054;-83
2022/07/10 10:30:53;;;;;;;3.05;0.75;;;17.50;99.90;;;;;;5106704;28;20048;-82
2022/07/10 10:33:34;;;;;;;3.95;1.23;;;17.60;99.90;;;;;;5089928;28;20044;-82
2022/07/10 10:36:02;;;;;;;6.05;0.55;;;17.80;99.90;;;;;;5106293;28;20101;-83
2022/07/10 10:38:51;;;;;;;8.48;0.90;;;17.80;99.90;;;;;;5107973;28;20471;-83
2022/07/10 10:41:37;;;;;;;7.45;1.15;;;18.00;99.90;;;;;;5105785;28;20391;-84
2022/07/10 10:44:09;;;;;;;4.78;0.95;;;18.10;99.90;;;;;;5107857;28;20510;-84
2022/07/10 10:47:05;;;;;;;4.68;0.68;;;18.30;99.90;;;;;;5089360;28;20074;-83
2022/07/10 10:49:51;;;;;;;5.63;0.75;;;18.30;99.90;;;;;;5062223;28;20044;-82
2022/07/10 10:52:18;;;;;;;6.18;1.10;;;18.20;99.90;;;;;;5089581;28;20475;-82
2022/07/10 10:55:07;;;;;;;4.55;0.70;;;18.00;99.90;;;;;;5072230;28;20050;-83
2022/07/10 10:57:37;;;;;;;5.25;0.80;;;17.80;99.90;;;;;;5106102;28;20044;-83
2022/07/10 11:00:07;;;;;;;2.17;0.93;;;17.70;99.90;;;;;;5106167;28;20044;-82
2022/07/10 11:02:40;;;;;;;3.75;0.60;;;17.70;99.90;;;;;;5105018;28;20047;-82
2022/07/10 11:05:17;;;;;;;3.60;0.77;;;17.50;99.90;;;;;;5107273;28;20585;-81
2022/07/10 11:07:58;;;;;;;7.45;0.90;;;17.50;99.90;;;;;;5088362;28;20089;-83
2022/07/10 11:10:31;;;;;;;3.40;0.75;;;17.50;99.90;;;;;;5105737;28;20394;-84
2022/07/10 11:13:02;;;;;;;8.75;1.98;;;17.60;99.90;;;;;;5088758;28;20593;-83
2022/07/10 11:15:35;;;;;;;3.30;0.85;;;17.80;99.90;;;;;;5086951;28;20147;-83
2022/07/10 11:18:21;;;;;;;5.20;0.85;;;18.00;99.90;;;;;;5107685;28;20134;-83
2022/07/10 11:20:49;;;;;;;3.65;1.00;;;19.00;99.90;;;;;;5090746;28;20152;-83
2022/07/10 11:23:36;;;;;;;5.80;1.00;;;18.40;99.90;;;;;;5071577;28;20059;-82
2022/07/10 11:26:10;;;;;;;5.68;1.02;;;18.50;99.90;;;;;;5105487;28;20051;-83
2022/07/10 11:28:59;;;;;;;4.35;0.85;;;18.60;99.90;;;;;;5083587;28;20051;-83
2022/07/10 11:31:29;;;;;;;6.20;0.98;;;18.50;99.90;;;;;;5104912;28;20083;-83
2022/07/10 11:33:56;;;;;;;3.63;0.93;;;18.40;99.90;;;;;;5106305;28;20080;-82
2022/07/10 11:36:28;;;;;;;4.30;1.05;;;18.40;99.90;;;;;;5106178;28;20456;-82
2022/07/10 11:39:00;;;;;;;4.20;0.85;;;18.30;99.90;;;;;;5088192;28;20052;-83
2022/07/10 11:41:27;;;;;;;5.45;0.88;;;18.30;99.90;;;;;;5104279;28;20129;-83
2022/07/10 11:44:00;;;;;;;2.88;0.85;;;18.30;99.90;;;;;;5106238;28;20090;-83
2022/07/10 11:46:28;;;;;;;5.60;0.95;;;18.30;99.90;;;;;;5088721;28;20086;-83
2022/07/10 11:48:56;;;;;;;10.63;1.05;;;18.30;99.90;;;;;;5087979;28;20048;-83
2022/07/10 11:51:28;;;;;;;3.78;0.70;;;18.40;99.90;;;;;;5104488;28;20121;-83
2022/07/10 11:54:05;;;;;;;7.13;1.00;;;18.40;99.90;;;;;;5104264;28;20047;-84
2022/07/10 11:56:38;;;;;;;5.28;0.75;;;18.30;99.90;;;;;;5105510;28;20114;-83
2022/07/10 11:59:07;;;;;;;4.25;0.63;;;18.10;99.90;;;;;;5107207;27;20052;-82
2022/07/10 12:01:44;;;;;;;4.82;0.65;;;18.00;99.90;;;;;;5087830;28;20052;-82
2022/07/10 12:04:12;;;;;;;3.60;0.77;;;17.90;99.90;;;;;;5105237;28;20043;-83
2022/07/10 12:06:39;;;;;;;2.85;0.80;;;17.80;99.90;;;;;;5087573;28;20448;-83
2022/07/10 12:09:14;;;;;;;3.72;0.82;;;17.80;99.90;;;;;;5104627;28;20569;-83
2022/07/10 12:11:42;;;;;;;4.97;0.75;;;17.70;99.90;;;;;;5086878;28;20104;-81
2022/07/10 12:14:19;;;;;;;1.67;0.50;;;17.70;99.90;;;;;;5088276;28;20059;-81
2022/07/10 12:16:48;;;;;;;7.13;1.90;;;17.70;99.90;;;;;;5105836;28;20043;-80
2022/07/10 12:19:16;;;;;;;2.33;0.63;;;17.70;99.90;;;;;;5105557;28;20051;-82
2022/07/10 12:21:44;;;;;;;2.25;0.68;;;17.80;99.90;;;;;;5104006;28;20109;-82
2022/07/10 12:24:12;;;;;;;5.63;0.80;;;18.00;99.90;;;;;;5100986;28;20130;-83
2022/07/10 12:26:55;;;;;;;4.55;0.60;;;18.20;99.90;;;;;;5102348;27;20114;-82
2022/07/10 12:29:29;;;;;;;3.20;0.55;;;18.30;99.90;;;;;;5091191;27;20043;-83
2022/07/10 12:31:57;;;;;;;2.40;0.45;;;18.40;99.90;;;;;;5106885;27;20050;-83
2022/07/10 12:34:39;;;;;;;3.28;0.40;;;18.40;99.90;;;;;;5090939;27;20047;-82
2022/07/10 12:37:13;;;;;;;3.65;0.63;;;18.60;99.90;;;;;;5107076;27;20078;-81
2022/07/10 12:39:52;;;;;;;3.63;0.60;;;18.60;99.90;;;;;;5090263;27;20047;-82
2022/07/10 12:42:31;;;;;;;0.85;0.30;;;18.60;99.90;;;;;;5125956;27;20553;-83
2022/07/10 12:45:10;;;;;;;3.00;0.30;;;18.50;99.90;;;;;;5090205;27;20138;-82
2022/07/10 12:47:48;;;;;;;3.55;0.38;;;18.30;99.90;;;;;;5090191;27;20059;-83
2022/07/10 12:50:18;;;;;;;2.10;0.50;;;18.20;99.90;;;;;;5073639;28;20086;-83
2022/07/10 12:52:44;;;;;;;1.85;0.35;;;18.00;99.90;;;;;;5090170;28;20054;-82
2022/07/10 12:55:14;;;;;;;2.05;0.55;;;17.90;99.90;;;;;;5107303;28;20237;-83
2022/07/10 12:57:50;;;;;;;2.90;0.55;;;17.80;99.90;;;;;;5107120;28;20055;-83